Time;durP1;ratioP1;P1;durP2;ratioP2;P2;SDS_P1;SDS_P2;PMS_P1;PMS_P2;Temp;Humidity;BMP_temperature;BMP_pressure;BME280_temperature;BME280_humidity;BME280_pressure;Samples;Min_cycle;Max_cycle;Signal;HPM_P1;HPM_P2
2021/04/09 00:01:37;;;;;;;1.20;0.47;;;2.30;68.80;;;;;;5093605;28;20690;-71
2021/04/09 00:04:03;;;;;;;0.63;0.63;;;2.30;69.00;;;;;;5100862;28;20265;-72
2021/04/09 00:06:29;;;;;;;0.90;0.90;;;2.30;68.90;;;;;;5098625;28;20837;-73
2021/04/09 00:08:55;;;;;;;0.70;0.70;;;2.30;69.10;;;;;;5091672;28;20228;-71
2021/04/09 00:11:20;;;;;;;2.27;1.43;;;2.30;69.20;;;;;;5099469;28;20189;-72
2021/04/09 00:13:46;;;;;;;1.60;1.13;;;2.20;69.30;;;;;;5094399;28;20642;-71
2021/04/09 00:16:12;;;;;;;0.87;0.87;;;2.20;69.20;;;;;;5075767;28;20205;-71
2021/04/09 00:18:37;;;;;;;0.70;0.70;;;2.20;69.40;;;;;;5095098;28;20647;-72
2021/04/09 00:21:03;;;;;;;0.80;0.80;;;2.20;69.40;;;;;;5098316;28;20178;-72
2021/04/09 00:23:29;;;;;;;0.70;0.70;;;2.20;69.20;;;;;;5097096;28;20261;-72
2021/04/09 00:25:55;;;;;;;1.27;0.90;;;2.10;69.50;;;;;;5095786;28;20256;-72
2021/04/09 00:28:21;;;;;;;0.93;0.93;;;2.10;69.60;;;;;;5096910;28;20655;-71
2021/04/09 00:30:46;;;;;;;0.90;0.90;;;2.10;69.70;;;;;;5094166;28;20240;-71
2021/04/09 00:33:12;;;;;;;4.33;0.93;;;2.00;69.70;;;;;;5090184;28;20185;-72
2021/04/09 00:35:38;;;;;;;0.87;0.87;;;2.10;70.00;;;;;;5080044;28;20184;-71
2021/04/09 00:40:48;;;;;;;0.97;0.80;;;2.10;69.90;;;;;;5093590;28;20262;-72
2021/04/09 00:43:14;;;;;;;1.03;0.87;;;2.00;69.90;;;;;;5090473;28;20190;-72
2021/04/09 00:45:40;;;;;;;1.07;1.07;;;2.00;70.00;;;;;;5095468;28;20594;-72
2021/04/09 00:48:07;;;;;;;0.87;0.87;;;2.00;70.30;;;;;;5096634;28;20721;-72
2021/04/09 00:50:34;;;;;;;1.00;0.90;;;2.00;70.30;;;;;;5098067;28;20208;-72
2021/04/09 00:53:06;;;;;;;0.80;0.80;;;1.90;70.30;;;;;;5095981;28;20174;-72
2021/04/09 00:55:32;;;;;;;0.90;0.90;;;1.90;70.50;;;;;;5093530;28;20177;-72
2021/04/09 00:57:59;;;;;;;0.93;0.93;;;1.90;70.60;;;;;;5095012;28;20177;-72
2021/04/09 01:00:26;;;;;;;0.70;0.70;;;1.90;70.70;;;;;;5099151;28;20218;-72
2021/04/09 01:02:53;;;;;;;1.03;1.03;;;1.90;70.60;;;;;;5100480;28;20223;-72
2021/04/09 01:05:19;;;;;;;1.03;1.03;;;1.80;70.70;;;;;;5098506;28;20647;-71
2021/04/09 01:07:46;;;;;;;0.77;0.77;;;1.80;70.90;;;;;;5095541;28;20185;-72
2021/04/09 01:10:14;;;;;;;0.60;0.60;;;1.80;70.90;;;;;;5093203;28;20213;-73
2021/04/09 01:12:40;;;;;;;0.40;0.40;;;1.80;71.00;;;;;;5094652;28;20181;-73
2021/04/09 01:15:08;;;;;;;0.93;0.93;;;1.80;71.20;;;;;;5091835;28;20541;-72
2021/04/09 01:17:56;;;;;;;1.30;1.20;;;1.80;71.30;;;;;;5090856;28;20178;-72
2021/04/09 01:20:49;;;;;;;1.00;1.00;;;1.70;71.20;;;;;;5091802;28;20236;-72
2021/04/09 01:23:24;;;;;;;0.73;0.73;;;1.70;71.40;;;;;;5091965;28;20183;-72
2021/04/09 01:26:01;;;;;;;1.60;0.70;;;1.70;71.50;;;;;;5093003;28;20178;-72
2021/04/09 01:28:46;;;;;;;1.57;0.67;;;1.70;71.60;;;;;;5093988;28;20182;-72
2021/04/09 01:31:44;;;;;;;0.73;0.73;;;1.60;71.70;;;;;;5091514;28;20213;-72
2021/04/09 01:34:11;;;;;;;1.03;1.03;;;1.60;71.60;;;;;;5093099;28;20197;-72
2021/04/09 01:36:48;;;;;;;0.70;0.70;;;1.60;71.70;;;;;;5088068;28;20183;-72
2021/04/09 01:39:20;;;;;;;1.47;1.10;;;1.60;71.60;;;;;;5090669;28;20189;-72
2021/04/09 01:41:49;;;;;;;1.17;1.03;;;1.60;71.70;;;;;;5092637;28;20209;-72
2021/04/09 01:44:18;;;;;;;0.40;0.40;;;1.60;71.80;;;;;;5091587;28;20247;-72
2021/04/09 01:46:45;;;;;;;0.60;0.60;;;1.50;71.80;;;;;;5094367;28;20221;-72
2021/04/09 01:49:12;;;;;;;0.50;0.50;;;1.50;71.70;;;;;;5089768;28;20186;-72
2021/04/09 01:51:39;;;;;;;0.40;0.40;;;1.60;71.80;;;;;;5098584;28;20193;-72
2021/04/09 01:54:07;;;;;;;0.60;0.60;;;1.60;71.80;;;;;;5091817;28;20179;-72
2021/04/09 01:56:35;;;;;;;0.47;0.47;;;1.50;71.70;;;;;;5092800;28;20651;-72
2021/04/09 01:59:01;;;;;;;0.67;0.67;;;1.50;72.10;;;;;;5091349;28;20282;-72
2021/04/09 02:01:27;;;;;;;0.90;0.70;;;1.50;72.00;;;;;;5096323;28;20181;-72
2021/04/09 02:03:55;;;;;;;3.23;0.73;;;1.40;72.20;;;;;;5097454;28;20596;-72
2021/04/09 02:09:05;;;;;;;1.30;1.20;;;1.40;72.30;;;;;;5094544;28;20244;-72
2021/04/09 02:11:36;;;;;;;0.70;0.70;;;1.40;72.50;;;;;;5093870;28;20178;-72
2021/04/09 02:14:06;;;;;;;0.63;0.63;;;1.40;72.40;;;;;;5072895;28;20216;-72
2021/04/09 02:16:32;;;;;;;1.17;0.87;;;1.40;72.30;;;;;;5098998;28;20177;-72
2021/04/09 02:19:03;;;;;;;0.90;0.90;;;1.50;72.10;;;;;;5089284;28;20682;-72
2021/04/09 02:21:32;;;;;;;0.87;0.87;;;1.40;72.20;;;;;;5088502;28;20182;-72
2021/04/09 02:23:59;;;;;;;0.40;0.40;;;1.40;72.20;;;;;;5088960;28;20682;-72
2021/04/09 02:26:27;;;;;;;0.70;0.70;;;1.40;72.20;;;;;;5096094;28;20170;-72
2021/04/09 02:28:54;;;;;;;1.23;0.77;;;1.40;72.60;;;;;;5094810;28;20226;-72
2021/04/09 02:31:20;;;;;;;2.13;0.90;;;1.50;72.60;;;;;;5089976;28;20665;-71
2021/04/09 02:33:45;;;;;;;1.57;1.30;;;1.50;72.80;;;;;;5094795;28;20706;-72
2021/04/09 02:36:23;;;;;;;1.70;1.60;;;1.50;72.90;;;;;;5094609;28;20249;-72
2021/04/09 02:38:52;;;;;;;0.90;0.90;;;1.50;73.20;;;;;;5092303;28;20215;-72
2021/04/09 02:41:20;;;;;;;0.90;0.90;;;1.50;73.10;;;;;;5094687;28;20174;-72
2021/04/09 02:43:46;;;;;;;1.70;0.70;;;1.50;73.10;;;;;;5097596;28;20239;-72
2021/04/09 02:46:35;;;;;;;0.80;0.80;;;1.40;73.00;;;;;;5097300;28;20185;-71
2021/04/09 02:49:09;;;;;;;1.73;0.93;;;1.40;73.00;;;;;;5093714;28;20723;-71
2021/04/09 02:51:35;;;;;;;1.40;1.30;;;1.40;73.10;;;;;;5096402;28;20182;-72
2021/04/09 02:54:02;;;;;;;2.03;1.63;;;1.40;73.30;;;;;;5098304;28;20637;-72
2021/04/09 02:56:30;;;;;;;2.93;0.73;;;1.40;73.30;;;;;;5095338;28;20178;-71
2021/04/09 02:58:56;;;;;;;0.93;0.93;;;1.30;73.20;;;;;;5097570;28;20189;-72
2021/04/09 03:01:26;;;;;;;1.23;0.90;;;1.30;73.40;;;;;;5101261;28;20175;-72
2021/04/09 03:03:52;;;;;;;1.80;1.73;;;1.30;73.60;;;;;;5104018;28;20178;-72
2021/04/09 03:06:18;;;;;;;1.30;1.20;;;1.30;73.80;;;;;;5097432;28;20697;-71
2021/04/09 03:08:45;;;;;;;2.40;1.60;;;1.30;74.10;;;;;;5099881;28;20173;-72
2021/04/09 03:11:10;;;;;;;5.40;1.70;;;1.20;74.10;;;;;;5097454;28;20205;-72
2021/04/09 03:13:36;;;;;;;1.13;1.13;;;1.30;73.90;;;;;;5096381;28;20681;-72
2021/04/09 03:16:05;;;;;;;3.13;1.53;;;1.30;73.70;;;;;;5091890;28;20216;-72
2021/04/09 03:18:36;;;;;;;2.40;1.20;;;1.20;73.60;;;;;;5092272;28;20178;-72
2021/04/09 03:21:02;;;;;;;1.80;1.70;;;1.20;73.60;;;;;;5099522;28;20174;-72
2021/04/09 03:23:28;;;;;;;1.80;1.17;;;1.20;73.60;;;;;;5094982;28;20594;-73
2021/04/09 03:25:53;;;;;;;1.87;1.77;;;1.20;73.70;;;;;;5102156;28;20205;-73
2021/04/09 03:28:19;;;;;;;1.10;1.10;;;1.20;73.90;;;;;;5096991;28;21516;-72
2021/04/09 03:30:49;;;;;;;10.03;2.23;;;1.10;74.00;;;;;;5091892;28;20921;-72
2021/04/09 03:33:19;;;;;;;1.90;1.80;;;1.10;74.20;;;;;;5096262;28;20189;-73
2021/04/09 03:35:45;;;;;;;2.17;2.00;;;1.10;74.10;;;;;;5094644;28;20610;-72
2021/04/09 03:38:13;;;;;;;1.30;1.20;;;1.10;74.50;;;;;;5095594;28;20261;-72
2021/04/09 03:40:38;;;;;;;2.10;2.00;;;1.10;74.60;;;;;;5098210;28;20179;-73
2021/04/09 03:43:04;;;;;;;3.17;2.20;;;1.10;74.60;;;;;;5098870;28;20630;-73
2021/04/09 03:45:30;;;;;;;2.03;1.87;;;1.10;74.60;;;;;;5092486;28;20272;-73
2021/04/09 03:47:56;;;;;;;1.50;1.40;;;1.10;74.80;;;;;;5092149;28;20275;-73
2021/04/09 03:50:22;;;;;;;3.40;1.77;;;1.00;74.90;;;;;;5098951;28;20708;-73
2021/04/09 03:52:47;;;;;;;1.97;1.37;;;1.10;74.90;;;;;;5096951;28;20178;-72
2021/04/09 03:55:14;;;;;;;1.13;1.13;;;1.00;75.00;;;;;;5097078;28;20182;-73
2021/04/09 03:57:39;;;;;;;2.43;1.67;;;1.00;75.10;;;;;;5093428;28;20202;-73
2021/04/09 04:00:06;;;;;;;0.87;0.87;;;1.10;75.00;;;;;;5093580;28;20285;-72
2021/04/09 04:02:32;;;;;;;2.13;2.03;;;1.10;74.80;;;;;;5094306;28;20375;-73
2021/04/09 04:04:58;;;;;;;1.80;1.50;;;1.10;74.70;;;;;;5097900;28;20177;-73
2021/04/09 04:07:24;;;;;;;1.43;1.20;;;1.10;74.70;;;;;;5098659;28;20710;-72
2021/04/09 04:09:50;;;;;;;3.17;1.60;;;1.20;74.50;;;;;;5093498;28;20209;-73
2021/04/09 04:12:15;;;;;;;4.43;1.23;;;1.20;74.50;;;;;;5093737;28;20186;-73
2021/04/09 04:14:41;;;;;;;0.83;0.83;;;1.20;74.30;;;;;;5098086;28;20662;-73
2021/04/09 04:17:07;;;;;;;1.23;1.23;;;1.20;74.50;;;;;;5097986;28;20360;-72
2021/04/09 04:19:32;;;;;;;1.90;1.23;;;1.20;74.50;;;;;;5094964;28;20199;-73
2021/04/09 04:21:58;;;;;;;1.67;1.63;;;1.20;74.50;;;;;;5098104;28;20215;-73
2021/04/09 04:24:23;;;;;;;1.00;1.00;;;1.30;74.40;;;;;;5093528;28;20173;-73
2021/04/09 04:26:49;;;;;;;1.57;1.47;;;1.30;74.40;;;;;;5093133;28;20175;-73
2021/04/09 04:29:15;;;;;;;2.13;2.03;;;1.30;74.60;;;;;;5076739;28;20186;-73
2021/04/09 04:31:40;;;;;;;1.23;1.20;;;1.30;74.90;;;;;;5092216;28;20671;-73
2021/04/09 04:34:06;;;;;;;2.73;2.40;;;1.30;75.00;;;;;;5076782;28;20189;-73
2021/04/09 04:36:32;;;;;;;2.53;2.10;;;1.30;75.30;;;;;;5096649;28;20555;-73
2021/04/09 04:38:58;;;;;;;1.83;1.83;;;1.30;75.60;;;;;;5076151;28;20571;-73
2021/04/09 04:41:24;;;;;;;4.07;2.27;;;1.30;75.80;;;;;;5092072;28;20181;-73
2021/04/09 04:43:50;;;;;;;2.03;1.93;;;1.30;76.00;;;;;;5092964;28;20181;-73
2021/04/09 04:46:15;;;;;;;2.83;2.47;;;1.30;76.10;;;;;;5096776;28;20611;-73
2021/04/09 04:48:41;;;;;;;3.37;2.97;;;1.20;76.30;;;;;;5096156;28;20194;-73
2021/04/09 04:51:07;;;;;;;2.50;2.30;;;1.20;76.90;;;;;;5095047;28;20279;-73
2021/04/09 04:53:33;;;;;;;2.80;1.80;;;1.20;77.00;;;;;;5095310;28;20223;-73
2021/04/09 04:55:58;;;;;;;3.10;2.90;;;1.20;76.90;;;;;;5101046;28;20577;-73
2021/04/09 04:58:24;;;;;;;3.47;2.93;;;1.30;77.30;;;;;;5101149;28;20177;-73
2021/04/09 05:00:49;;;;;;;3.07;2.73;;;1.30;77.80;;;;;;5090561;28;20247;-73
2021/04/09 05:03:15;;;;;;;5.40;2.80;;;1.30;77.70;;;;;;5075785;28;20640;-72
2021/04/09 05:05:41;;;;;;;2.80;1.97;;;1.30;77.70;;;;;;5094263;28;20178;-73
2021/04/09 05:08:06;;;;;;;2.73;2.03;;;1.30;77.70;;;;;;5097543;28;20296;-73
2021/04/09 05:10:32;;;;;;;5.20;2.57;;;1.40;77.50;;;;;;5095267;28;20217;-73
2021/04/09 05:12:58;;;;;;;2.23;2.13;;;1.40;77.20;;;;;;5092995;28;20675;-73
2021/04/09 05:15:24;;;;;;;4.33;2.53;;;1.40;77.30;;;;;;5090365;28;20189;-71
2021/04/09 05:17:49;;;;;;;3.00;2.80;;;1.40;77.20;;;;;;5075719;28;20326;-72
2021/04/09 05:20:15;;;;;;;2.00;1.87;;;1.40;77.20;;;;;;5092614;28;20197;-73
2021/04/09 05:22:41;;;;;;;9.20;3.03;;;1.50;77.10;;;;;;5093176;28;20179;-72
2021/04/09 05:25:08;;;;;;;4.23;3.83;;;1.50;77.00;;;;;;5091452;28;20240;-73
2021/04/09 05:27:33;;;;;;;4.20;2.90;;;1.50;76.80;;;;;;5095913;28;20208;-73
2021/04/09 05:29:59;;;;;;;7.00;3.13;;;1.60;76.80;;;;;;5090689;28;20753;-72
2021/04/09 05:32:25;;;;;;;7.00;3.23;;;1.60;76.70;;;;;;5092187;28;20173;-72
2021/04/09 05:34:51;;;;;;;4.03;3.00;;;1.60;76.80;;;;;;5091052;28;20178;-73
2021/04/09 05:37:17;;;;;;;3.07;2.57;;;1.70;76.70;;;;;;5093972;28;20178;-74
2021/04/09 05:39:42;;;;;;;3.57;3.10;;;1.70;76.90;;;;;;5091386;28;20619;-73
2021/04/09 05:42:08;;;;;;;2.70;2.50;;;1.80;77.00;;;;;;5089266;28;20228;-74
2021/04/09 05:44:36;;;;;;;5.57;3.37;;;1.80;77.00;;;;;;5090549;28;20182;-74
2021/04/09 05:47:03;;;;;;;2.53;2.33;;;1.90;76.80;;;;;;5091235;28;20172;-73
2021/04/09 05:49:29;;;;;;;2.57;2.10;;;2.00;76.70;;;;;;5091897;28;20198;-73
2021/04/09 05:51:55;;;;;;;3.40;2.50;;;2.10;76.50;;;;;;5087720;28;20182;-73
2021/04/09 05:54:21;;;;;;;2.50;2.10;;;2.20;76.30;;;;;;5073584;28;20174;-73
2021/04/09 05:56:47;;;;;;;2.20;2.10;;;2.30;76.20;;;;;;5095075;28;20170;-70
2021/04/09 05:59:13;;;;;;;3.77;2.37;;;2.40;75.90;;;;;;5097814;28;20178;-70
2021/04/09 06:01:38;;;;;;;3.27;1.83;;;2.50;75.40;;;;;;5089097;28;20566;-70
2021/04/09 06:04:04;;;;;;;2.73;1.67;;;2.60;75.10;;;;;;5090666;28;20208;-70
2021/04/09 06:06:30;;;;;;;2.33;2.00;;;2.70;74.60;;;;;;5091590;28;20173;-70
2021/04/09 06:08:56;;;;;;;1.60;1.50;;;2.80;74.40;;;;;;5093011;28;20178;-71
2021/04/09 06:11:21;;;;;;;1.07;1.00;;;2.80;74.30;;;;;;5093850;28;20289;-69
2021/04/09 06:13:47;;;;;;;1.73;1.63;;;2.90;74.00;;;;;;5090662;28;20579;-71
2021/04/09 06:16:13;;;;;;;1.90;1.80;;;3.00;73.90;;;;;;5086502;28;20212;-70
2021/04/09 06:18:38;;;;;;;1.90;1.80;;;3.00;73.70;;;;;;5097291;28;20663;-70
2021/04/09 06:21:04;;;;;;;1.70;1.70;;;3.00;73.70;;;;;;5099631;28;20185;-70
2021/04/09 06:23:30;;;;;;;1.40;1.30;;;3.10;73.70;;;;;;5096763;28;20254;-70
2021/04/09 06:25:56;;;;;;;2.97;1.70;;;3.10;73.80;;;;;;5094142;28;20178;-69
2021/04/09 06:28:22;;;;;;;1.50;1.40;;;3.10;73.60;;;;;;5096194;28;20170;-69
2021/04/09 06:30:47;;;;;;;1.20;1.10;;;3.00;73.70;;;;;;5097532;28;20221;-70
2021/04/09 06:33:13;;;;;;;0.60;0.60;;;3.10;73.80;;;;;;5092979;28;20190;-70
2021/04/09 06:35:39;;;;;;;0.90;0.90;;;3.10;73.90;;;;;;5093490;28;20185;-70
2021/04/09 06:38:05;;;;;;;2.00;1.20;;;3.10;74.00;;;;;;5094275;28;20174;-70
2021/04/09 06:40:33;;;;;;;1.40;1.40;;;3.20;74.10;;;;;;5095996;28;20612;-69
2021/04/09 06:43:00;;;;;;;0.97;0.97;;;3.20;73.80;;;;;;5093993;28;20268;-70
2021/04/09 06:45:26;;;;;;;1.07;0.97;;;3.20;73.30;;;;;;5098568;28;20692;-70
2021/04/09 06:47:53;;;;;;;1.53;1.37;;;3.30;73.60;;;;;;5093498;28;20272;-68
2021/04/09 06:50:19;;;;;;;1.47;1.40;;;3.30;73.50;;;;;;5092847;28;20202;-67
2021/04/09 06:52:46;;;;;;;1.60;1.50;;;3.30;72.90;;;;;;5087256;28;20914;-66
2021/04/09 06:55:17;;;;;;;1.87;1.77;;;3.30;73.10;;;;;;5089252;28;20205;-66
2021/04/09 06:57:45;;;;;;;1.00;1.00;;;3.40;73.40;;;;;;5091930;28;20177;-67
2021/04/09 07:00:12;;;;;;;1.43;1.33;;;3.50;73.30;;;;;;5093615;28;20182;-67
2021/04/09 07:02:42;;;;;;;1.33;1.33;;;3.60;73.00;;;;;;5095844;28;20182;-66
2021/04/09 07:05:08;;;;;;;1.30;1.00;;;3.60;72.20;;;;;;5096766;28;20174;-66
2021/04/09 07:07:34;;;;;;;1.10;1.10;;;3.70;72.00;;;;;;5098278;28;20669;-67
2021/04/09 07:09:59;;;;;;;2.30;1.13;;;3.80;71.70;;;;;;5095312;28;20263;-66
2021/04/09 07:12:30;;;;;;;1.13;1.13;;;3.80;71.20;;;;;;5096989;28;20555;-67
2021/04/09 07:15:03;;;;;;;2.73;1.40;;;3.90;71.40;;;;;;5099091;28;20177;-67
2021/04/09 07:17:49;;;;;;;1.17;1.17;;;3.90;71.60;;;;;;5094155;28;20196;-67
2021/04/09 07:20:17;;;;;;;1.23;1.00;;;3.90;71.60;;;;;;5095843;28;20182;-67
2021/04/09 07:22:45;;;;;;;1.40;1.30;;;4.00;71.70;;;;;;5092397;28;20189;-67
2021/04/09 07:25:28;;;;;;;2.27;1.73;;;4.10;70.50;;;;;;5094206;28;20831;-67
2021/04/09 07:28:14;;;;;;;1.13;1.10;;;4.10;71.00;;;;;;5087427;28;20189;-67
2021/04/09 07:30:42;;;;;;;1.10;1.10;;;4.30;70.60;;;;;;5085696;28;20803;-67
2021/04/09 07:33:10;;;;;;;1.07;0.93;;;4.40;69.00;;;;;;5088117;28;20170;-66
2021/04/09 07:35:56;;;;;;;1.07;0.83;;;4.50;67.90;;;;;;5088583;28;20261;-66
2021/04/09 07:38:26;;;;;;;1.00;1.00;;;4.60;67.90;;;;;;5088568;28;20774;-66
2021/04/09 07:41:00;;;;;;;1.10;1.10;;;4.70;67.80;;;;;;5092813;28;20656;-66
2021/04/09 07:43:30;;;;;;;1.17;1.17;;;4.90;67.40;;;;;;5096754;28;20182;-68
2021/04/09 07:45:58;;;;;;;0.47;0.47;;;5.00;65.60;;;;;;5096997;28;20182;-67
2021/04/09 07:48:31;;;;;;;0.53;0.53;;;5.20;65.80;;;;;;5096040;28;20192;-66
2021/04/09 07:50:58;;;;;;;0.93;0.80;;;5.30;65.00;;;;;;5094453;28;20211;-65
2021/04/09 07:53:29;;;;;;;0.63;0.63;;;5.40;62.30;;;;;;5093988;28;20272;-66
2021/04/09 07:56:25;;;;;;;0.60;0.60;;;5.50;63.50;;;;;;5091680;28;20185;-67
2021/04/09 07:58:56;;;;;;;0.50;0.50;;;5.60;61.40;;;;;;5037810;28;20197;-66
2021/04/09 08:01:24;;;;;;;1.80;1.70;;;5.60;61.30;;;;;;5035585;28;20195;-66
2021/04/09 08:03:51;;;;;;;1.47;1.20;;;5.70;61.90;;;;;;5033661;28;20192;-66
2021/04/09 08:06:20;;;;;;;1.13;1.13;;;5.70;61.00;;;;;;5038777;28;20323;-66
2021/04/09 08:08:46;;;;;;;0.57;0.57;;;5.70;61.30;;;;;;5037840;28;20198;-66
2021/04/09 08:11:18;;;;;;;0.70;0.70;;;5.80;61.60;;;;;;5037396;28;20211;-66
2021/04/09 08:13:44;;;;;;;0.70;0.70;;;5.90;61.10;;;;;;5036572;28;20662;-66
2021/04/09 08:16:30;;;;;;;0.77;0.77;;;6.00;59.80;;;;;;5039289;28;20778;-66
2021/04/09 08:19:10;;;;;;;2.30;1.17;;;6.10;60.60;;;;;;5035029;28;20208;-66
2021/04/09 08:21:41;;;;;;;0.73;0.73;;;6.20;60.70;;;;;;5036081;28;20743;-66
2021/04/09 08:24:09;;;;;;;0.70;0.70;;;6.30;61.10;;;;;;5036882;28;20168;-67
2021/04/09 08:26:36;;;;;;;0.50;0.50;;;6.50;61.60;;;;;;5037998;28;20590;-66
2021/04/09 08:29:04;;;;;;;2.23;0.83;;;6.60;61.20;;;;;;5037770;28;20191;-67
2021/04/09 08:31:30;;;;;;;0.90;0.90;;;6.80;60.00;;;;;;5038394;28;20698;-67
2021/04/09 08:33:55;;;;;;;0.87;0.87;;;6.90;58.90;;;;;;5037332;28;20191;-67
2021/04/09 08:36:22;;;;;;;1.20;1.00;;;6.90;59.70;;;;;;5091802;28;20610;-66
2021/04/09 08:38:48;;;;;;;1.63;0.83;;;7.00;58.40;;;;;;5077541;28;20211;-67
2021/04/09 08:41:15;;;;;;;1.13;0.73;;;7.00;59.00;;;;;;5092044;28;20192;-67
2021/04/09 08:43:41;;;;;;;0.83;0.80;;;7.20;59.20;;;;;;5091003;28;20173;-66
2021/04/09 08:46:07;;;;;;;0.70;0.70;;;7.40;58.20;;;;;;5092710;28;20185;-67
2021/04/09 08:48:36;;;;;;;0.73;0.73;;;7.70;57.80;;;;;;5094689;28;21496;-66
2021/04/09 08:51:03;;;;;;;0.70;0.70;;;8.00;57.00;;;;;;5092250;28;20224;-67
2021/04/09 08:53:30;;;;;;;0.63;0.63;;;8.30;57.10;;;;;;5095509;28;20644;-66
2021/04/09 08:55:56;;;;;;;0.80;0.70;;;8.80;56.30;;;;;;5092740;28;20189;-66
2021/04/09 08:58:22;;;;;;;0.70;0.70;;;9.40;56.10;;;;;;5093590;28;20816;-67
2021/04/09 09:00:50;;;;;;;2.43;0.70;;;10.10;55.60;;;;;;5089193;28;20178;-66
2021/04/09 09:03:24;;;;;;;0.70;0.70;;;10.70;54.60;;;;;;5094299;28;20207;-68
2021/04/09 09:05:56;;;;;;;0.90;0.90;;;11.20;53.70;;;;;;5095787;28;20581;-68
2021/04/09 09:08:21;;;;;;;0.73;0.73;;;11.30;51.70;;;;;;5092128;28;20895;-68
2021/04/09 09:10:48;;;;;;;0.83;0.83;;;10.90;50.60;;;;;;5093573;28;20210;-68
2021/04/09 09:13:28;;;;;;;1.17;1.13;;;10.60;52.10;;;;;;5094791;28;20186;-68
2021/04/09 09:15:56;;;;;;;4.43;0.98;;;11.00;51.70;;;;;;5087839;28;20693;-68
2021/04/09 09:18:22;;;;;;;1.35;0.77;;;11.50;50.80;;;;;;5090891;28;20204;-67
2021/04/09 09:21:20;;;;;;;3.33;1.00;;;12.30;50.80;;;;;;5092643;28;20185;-69
2021/04/09 09:23:58;;;;;;;1.27;0.85;;;13.00;49.20;;;;;;5091657;28;20299;-70
2021/04/09 09:26:38;;;;;;;0.70;0.70;;;13.20;47.80;;;;;;5094137;28;20655;-72
2021/04/09 09:29:21;;;;;;;0.73;0.73;;;13.40;48.10;;;;;;5092523;28;20178;-71
2021/04/09 09:31:59;;;;;;;2.63;1.13;;;13.20;48.10;;;;;;5091868;28;20182;-71
2021/04/09 09:34:26;;;;;;;1.63;1.13;;;12.90;47.90;;;;;;5094923;28;20256;-69
2021/04/09 09:37:13;;;;;;;2.55;0.85;;;12.50;47.90;;;;;;5090721;28;20201;-71
2021/04/09 09:40:02;;;;;;;0.98;0.98;;;13.00;48.50;;;;;;5089973;28;21035;-69
2021/04/09 09:42:28;;;;;;;1.13;1.13;;;13.70;47.50;;;;;;5088532;28;20265;-70
2021/04/09 09:44:57;;;;;;;0.90;0.90;;;14.30;47.10;;;;;;5088665;28;20277;-72
2021/04/09 09:47:33;;;;;;;1.63;1.15;;;14.70;46.60;;;;;;5092288;28;20193;-71
2021/04/09 09:50:04;;;;;;;0.63;0.63;;;15.20;46.10;;;;;;5087164;28;20202;-71
2021/04/09 09:52:48;;;;;;;0.82;0.82;;;15.50;44.90;;;;;;5088779;28;21691;-69
2021/04/09 09:55:47;;;;;;;1.05;1.05;;;15.00;45.20;;;;;;5076251;28;20211;-70
2021/04/09 09:58:18;;;;;;;1.55;1.27;;;14.30;46.40;;;;;;5092404;28;20319;-70
2021/04/09 10:00:54;;;;;;;1.20;1.08;;;14.00;45.10;;;;;;5090087;28;20193;-68
2021/04/09 10:03:37;;;;;;;0.70;0.70;;;14.10;46.80;;;;;;5088288;28;20185;-69
2021/04/09 10:06:14;;;;;;;2.03;1.20;;;14.10;46.10;;;;;;5073797;28;20284;-71
2021/04/09 10:08:42;;;;;;;0.80;0.80;;;14.40;45.80;;;;;;5074974;28;20190;-68
2021/04/09 10:11:29;;;;;;;3.30;0.90;;;15.00;45.20;;;;;;5089689;28;20601;-68
2021/04/09 10:13:56;;;;;;;1.05;0.55;;;16.10;44.70;;;;;;5091161;28;20198;-69
2021/04/09 10:16:24;;;;;;;0.88;0.88;;;17.40;43.50;;;;;;5092383;28;20701;-68
2021/04/09 10:18:53;;;;;;;1.13;0.85;;;18.60;42.60;;;;;;5091397;28;20276;-68
2021/04/09 10:21:25;;;;;;;0.63;0.63;;;19.50;40.40;;;;;;5089195;28;20185;-68
2021/04/09 10:24:14;;;;;;;1.67;0.80;;;20.40;41.40;;;;;;5087181;28;20188;-68
2021/04/09 10:27:03;;;;;;;0.70;0.70;;;21.10;42.10;;;;;;5072862;28;20190;-69
2021/04/09 10:29:33;;;;;;;0.60;0.60;;;22.20;41.20;;;;;;5093451;28;20174;-68
2021/04/09 10:32:01;;;;;;;0.77;0.77;;;23.30;40.60;;;;;;5091492;28;20184;-67
2021/04/09 10:34:33;;;;;;;0.80;0.80;;;23.90;37.00;;;;;;5088675;28;20178;-70
2021/04/09 10:37:05;;;;;;;1.15;0.85;;;24.40;37.90;;;;;;5089516;28;20556;-69
2021/04/09 10:39:31;;;;;;;0.68;0.68;;;24.80;37.10;;;;;;5091646;28;20234;-68
2021/04/09 10:42:00;;;;;;;0.68;0.68;;;24.80;37.90;;;;;;5091590;28;20260;-68
2021/04/09 10:44:31;;;;;;;0.90;0.82;;;24.60;35.20;;;;;;5088226;28;20190;-68
2021/04/09 10:46:58;;;;;;;1.05;1.05;;;24.30;37.10;;;;;;5070097;28;20666;-68
2021/04/09 10:49:26;;;;;;;0.80;0.80;;;23.20;36.80;;;;;;5088567;28;20191;-69
2021/04/09 10:52:00;;;;;;;0.82;0.82;;;22.40;36.70;;;;;;5090131;28;20670;-69
2021/04/09 10:54:30;;;;;;;2.67;1.05;;;22.20;39.30;;;;;;5088599;28;20185;-69
2021/04/09 10:57:09;;;;;;;0.90;0.90;;;22.40;38.90;;;;;;5072459;28;20298;-69
2021/04/09 10:59:47;;;;;;;0.60;0.60;;;22.90;38.30;;;;;;5089813;28;20265;-69
2021/04/09 11:02:21;;;;;;;0.77;0.77;;;23.50;36.80;;;;;;5088235;28;20667;-69
2021/04/09 11:04:51;;;;;;;0.80;0.80;;;24.00;38.90;;;;;;5093950;28;20170;-69
2021/04/09 11:07:17;;;;;;;0.65;0.65;;;24.50;36.20;;;;;;5096243;28;20182;-69
2021/04/09 11:09:47;;;;;;;0.57;0.57;;;25.20;36.90;;;;;;5091326;28;20206;-69
2021/04/09 11:12:27;;;;;;;1.30;0.73;;;25.70;35.70;;;;;;5089062;28;20194;-69
2021/04/09 11:15:04;;;;;;;0.75;0.75;;;26.20;36.90;;;;;;5093101;28;20567;-69
2021/04/09 11:17:29;;;;;;;0.60;0.55;;;26.40;35.10;;;;;;5094960;28;20247;-69
2021/04/09 11:19:57;;;;;;;0.45;0.45;;;26.00;35.40;;;;;;5074091;28;20185;-69
2021/04/09 11:22:26;;;;;;;0.75;0.60;;;25.90;35.60;;;;;;5094788;28;20166;-69
2021/04/09 11:25:07;;;;;;;0.80;0.80;;;25.80;37.20;;;;;;5094768;28;20178;-70
2021/04/09 11:27:38;;;;;;;0.68;0.68;;;26.00;34.30;;;;;;5093721;28;20261;-70
2021/04/09 11:30:15;;;;;;;0.57;0.57;;;26.30;35.50;;;;;;5091517;28;20304;-70
2021/04/09 11:32:44;;;;;;;0.68;0.68;;;26.50;35.70;;;;;;5088232;28;20181;-71
2021/04/09 11:35:12;;;;;;;0.75;0.73;;;26.80;36.00;;;;;;5093068;28;20178;-71
2021/04/09 11:37:49;;;;;;;0.70;0.70;;;26.80;34.60;;;;;;5093737;28;20190;-70
2021/04/09 11:40:33;;;;;;;0.90;0.90;;;26.80;35.70;;;;;;5092546;28;20193;-71
2021/04/09 11:42:59;;;;;;;1.02;0.65;;;26.60;35.10;;;;;;5091365;28;20182;-71
2021/04/09 11:45:40;;;;;;;0.60;0.60;;;26.50;33.90;;;;;;5091706;28;20211;-72
2021/04/09 11:48:31;;;;;;;0.68;0.68;;;25.60;32.30;;;;;;5093411;28;20193;-73
2021/04/09 11:51:20;;;;;;;0.82;0.75;;;24.70;33.40;;;;;;5092452;28;20216;-73
2021/04/09 11:54:21;;;;;;;1.05;0.80;;;24.30;33.00;;;;;;5087719;28;20197;-72
2021/04/09 11:56:48;;;;;;;3.50;0.55;;;23.70;33.40;;;;;;5093920;28;20182;-73
2021/04/09 11:59:16;;;;;;;2.38;0.65;;;23.50;37.00;;;;;;5092487;28;20204;-73
2021/04/09 12:01:43;;;;;;;1.48;0.80;;;23.80;34.50;;;;;;5090622;28;20635;-73
2021/04/09 12:04:36;;;;;;;0.82;0.82;;;24.30;34.50;;;;;;5094210;28;20261;-73
2021/04/09 12:07:04;;;;;;;0.60;0.60;;;24.90;34.70;;;;;;5090849;28;20271;-75
2021/04/09 12:09:30;;;;;;;0.60;0.60;;;25.50;36.30;;;;;;5091737;28;20730;-74
2021/04/09 12:11:56;;;;;;;0.50;0.50;;;26.00;34.30;;;;;;5093132;28;20217;-74
2021/04/09 12:14:52;;;;;;;0.60;0.60;;;26.60;34.40;;;;;;5103845;28;20231;-73
2021/04/09 12:17:19;;;;;;;0.57;0.57;;;27.00;34.30;;;;;;5092546;28;20571;-73
2021/04/09 12:19:47;;;;;;;0.90;0.90;;;27.20;35.40;;;;;;5093616;28;20225;-74
2021/04/09 12:22:15;;;;;;;0.80;0.70;;;27.20;35.10;;;;;;5094174;28;20726;-74
2021/04/09 12:24:41;;;;;;;0.98;0.57;;;27.40;33.70;;;;;;5092499;28;20585;-74
2021/04/09 12:27:07;;;;;;;0.60;0.60;;;27.70;34.00;;;;;;5095764;28;20651;-72
2021/04/09 12:29:35;;;;;;;0.65;0.65;;;28.00;32.40;;;;;;5089069;28;20184;-73
2021/04/09 12:32:02;;;;;;;0.50;0.50;;;28.00;32.70;;;;;;5089907;28;20185;-72
2021/04/09 12:34:27;;;;;;;0.70;0.70;;;27.60;31.80;;;;;;5091434;28;20234;-72
2021/04/09 12:36:54;;;;;;;1.05;0.65;;;27.50;32.90;;;;;;5092821;28;20170;-72
2021/04/09 12:39:21;;;;;;;0.63;0.63;;;27.40;33.80;;;;;;5069934;28;20186;-72
2021/04/09 12:41:47;;;;;;;1.70;0.60;;;26.90;32.60;;;;;;5087365;28;20670;-72
2021/04/09 12:44:15;;;;;;;0.65;0.40;;;26.90;32.20;;;;;;5090956;28;20181;-73
2021/04/09 12:46:41;;;;;;;0.60;0.60;;;27.10;32.60;;;;;;5088148;28;20261;-71
2021/04/09 12:49:07;;;;;;;1.35;0.68;;;27.50;32.90;;;;;;5090421;28;20273;-72
2021/04/09 12:51:33;;;;;;;0.70;0.70;;;27.60;33.40;;;;;;5092508;28;20690;-71
2021/04/09 12:53:59;;;;;;;0.57;0.57;;;26.70;33.70;;;;;;5086194;28;20249;-72
2021/04/09 12:56:25;;;;;;;1.45;0.90;;;25.90;32.70;;;;;;5090106;28;20206;-70
2021/04/09 12:58:51;;;;;;;0.90;0.90;;;25.20;33.80;;;;;;5089942;28;20217;-74
2021/04/09 13:01:17;;;;;;;0.90;0.90;;;24.60;33.90;;;;;;5089871;28;20613;-72
2021/04/09 13:03:43;;;;;;;1.35;0.90;;;24.10;34.20;;;;;;5089374;28;20227;-71
2021/04/09 13:06:10;;;;;;;0.75;0.75;;;23.80;33.70;;;;;;5095330;28;20179;-72
2021/04/09 13:08:37;;;;;;;0.98;0.93;;;23.60;35.10;;;;;;5092862;28;20682;-72
2021/04/09 13:11:04;;;;;;;4.90;0.98;;;23.20;34.00;;;;;;5089858;28;20978;-72